Time;durP1;ratioP1;P1;durP2;ratioP2;P2;SDS_P1;SDS_P2;PMS_P1;PMS_P2;Temp;Humidity;BMP_temperature;BMP_pressure;BME280_temperature;BME280_humidity;BME280_pressure;Samples;Min_cycle;Max_cycle;Signal;HPM_P1;HPM_P2
2024/01/07 00:00:03;;;;;;;27.73;24.20;;;1.40;1.00;;;;;;5044649;28;20450;-36
2024/01/07 00:02:30;;;;;;;27.55;22.80;;;1.40;1.00;;;;;;5050471;28;20502;-37
2024/01/07 00:04:56;;;;;;;28.38;23.10;;;1.40;1.00;;;;;;5053778;28;20596;-37
2024/01/07 00:07:22;;;;;;;27.67;23.40;;;1.40;2.90;;;;;;5048513;28;20526;-37
2024/01/07 00:09:47;;;;;;;32.30;23.20;;;1.40;1.00;;;;;;5052073;28;20188;-37
2024/01/07 00:12:13;;;;;;;29.17;23.73;;;1.40;1.00;;;;;;5056791;28;20609;-36
2024/01/07 00:14:39;;;;;;;24.40;21.80;;;1.40;1.00;;;;;;5057952;28;20208;-39
2024/01/07 00:17:04;;;;;;;31.10;23.10;;;1.40;1.00;;;;;;5053634;28;20759;-37
2024/01/07 00:19:31;;;;;;;24.17;21.57;;;1.30;1.00;;;;;;5050784;28;20264;-36
2024/01/07 00:21:57;;;;;;;27.80;23.17;;;1.40;1.00;;;;;;5057621;28;20184;-37
2024/01/07 00:24:25;;;;;;;29.55;22.90;;;1.40;1.00;;;;;;5051911;28;20221;-37
2024/01/07 00:26:51;;;;;;;28.50;22.60;;;1.40;1.00;;;;;;5052973;28;20743;-36
2024/01/07 00:29:17;;;;;;;28.50;22.97;;;1.40;1.00;;;;;;5054157;28;20258;-51
2024/01/07 00:31:42;;;;;;;24.23;21.70;;;1.40;2.00;;;;;;5056645;28;21132;-49
2024/01/07 00:34:08;;;;;;;28.20;22.93;;;1.40;4.40;;;;;;5047729;28;20176;-55
2024/01/07 00:36:33;;;;;;;27.77;24.17;;;1.40;6.00;;;;;;5048011;28;21080;-52
2024/01/07 00:38:59;;;;;;;28.40;22.50;;;1.40;16.80;;;;;;5055576;28;20186;-53
2024/01/07 00:41:24;;;;;;;26.70;21.53;;;1.40;37.50;;;;;;5050234;28;20268;-55
2024/01/07 00:43:50;;;;;;;28.17;22.80;;;1.40;42.20;;;;;;5045238;28;20192;-54
2024/01/07 00:46:16;;;;;;;28.23;23.50;;;1.40;46.50;;;;;;5043228;28;20719;-54
2024/01/07 00:48:41;;;;;;;29.00;24.00;;;1.40;55.40;;;;;;5043912;28;20226;-56
2024/01/07 00:51:07;;;;;;;28.93;23.33;;;1.40;58.50;;;;;;5056319;28;20229;-54
2024/01/07 00:53:32;;;;;;;25.43;22.03;;;1.40;54.50;;;;;;5047395;28;20196;-56
2024/01/07 00:55:58;;;;;;;24.35;21.42;;;1.50;58.60;;;;;;5058004;28;20176;-54
2024/01/07 00:58:24;;;;;;;28.40;23.03;;;1.50;54.00;;;;;;5055688;28;20184;-55
2024/01/07 01:00:50;;;;;;;27.03;22.60;;;1.40;51.90;;;;;;5051565;28;20204;-52
2024/01/07 01:03:16;;;;;;;24.70;22.10;;;1.40;50.20;;;;;;5052058;28;20199;-56
2024/01/07 01:05:42;;;;;;;27.43;23.00;;;1.40;42.60;;;;;;5049656;28;20236;-51
2024/01/07 01:08:07;;;;;;;25.83;22.90;;;1.40;38.00;;;;;;5057893;28;20719;-51
2024/01/07 01:10:33;;;;;;;26.27;23.03;;;1.40;37.40;;;;;;5057326;28;20202;-50
2024/01/07 01:12:59;;;;;;;27.57;23.73;;;1.30;26.70;;;;;;5062588;28;20218;-54
2024/01/07 01:15:24;;;;;;;24.73;21.60;;;1.30;32.00;;;;;;5045250;28;20530;-56
2024/01/07 01:17:50;;;;;;;29.00;23.13;;;1.30;34.70;;;;;;5055873;28;20207;-56
2024/01/07 01:20:15;;;;;;;27.40;23.17;;;1.30;28.90;;;;;;5060334;28;20285;-56
2024/01/07 01:22:41;;;;;;;26.80;21.53;;;1.30;21.60;;;;;;5048641;28;20181;-55
2024/01/07 01:25:07;;;;;;;29.40;22.27;;;1.30;16.50;;;;;;5062186;28;20549;-52
2024/01/07 01:27:32;;;;;;;26.93;21.83;;;1.30;17.60;;;;;;5053953;28;20180;-52
2024/01/07 01:29:58;;;;;;;29.87;23.40;;;1.30;11.90;;;;;;5046610;28;20263;-51
2024/01/07 01:32:23;;;;;;;29.30;23.10;;;1.20;8.50;;;;;;5057625;28;20704;-54
2024/01/07 01:34:49;;;;;;;27.10;22.43;;;1.20;21.80;;;;;;5043613;28;20193;-56
2024/01/07 01:37:14;;;;;;;23.90;21.33;;;1.30;21.40;;;;;;5047466;28;20192;-52
2024/01/07 01:39:41;;;;;;;23.27;21.00;;;1.20;14.00;;;;;;5053652;28;21019;-55
2024/01/07 01:42:07;;;;;;;28.63;21.85;;;1.20;8.90;;;;;;5049916;28;20183;-53
2024/01/07 01:44:33;;;;;;;27.15;21.95;;;1.20;10.50;;;;;;5043094;28;20209;-55
2024/01/07 01:47:00;;;;;;;29.90;23.47;;;1.20;2.90;;;;;;5043223;28;20192;-56
2024/01/07 01:49:27;;;;;;;23.85;21.35;;;1.10;1.00;;;;;;5043368;28;20534;-55
2024/01/07 01:51:53;;;;;;;25.65;22.55;;;1.10;1.00;;;;;;5043118;28;20180;-53
2024/01/07 01:54:20;;;;;;;25.42;22.60;;;1.10;11.00;;;;;;5058666;28;20328;-55
2024/01/07 01:56:47;;;;;;;27.40;23.92;;;1.10;7.70;;;;;;5058595;28;20192;-54
2024/01/07 01:59:14;;;;;;;28.73;23.67;;;1.20;7.10;;;;;;5050464;28;20275;-54
2024/01/07 02:01:40;;;;;;;30.42;21.63;;;1.10;14.30;;;;;;5050033;28;20207;-55
2024/01/07 02:04:07;;;;;;;25.43;22.70;;;1.10;14.60;;;;;;5055940;28;20651;-52
2024/01/07 02:06:33;;;;;;;28.45;23.50;;;1.10;17.80;;;;;;5050340;28;20186;-55
2024/01/07 02:08:58;;;;;;;24.43;21.40;;;1.20;18.10;;;;;;5055851;28;20367;-55
2024/01/07 02:11:24;;;;;;;22.43;20.27;;;1.10;9.10;;;;;;5054954;28;20654;-56
2024/01/07 02:13:50;;;;;;;27.07;21.60;;;1.10;1.00;;;;;;5053694;28;20177;-56
2024/01/07 02:16:16;;;;;;;23.70;21.30;;;1.10;8.10;;;;;;5060975;28;20257;-55
2024/01/07 02:18:43;;;;;;;25.50;22.70;;;1.10;1.30;;;;;;5053417;28;20294;-55
2024/01/07 02:21:10;;;;;;;25.73;21.77;;;1.10;1.00;;;;;;5051231;28;20194;-54
2024/01/07 02:23:35;;;;;;;24.83;22.13;;;1.00;1.00;;;;;;5024049;28;20206;-57
2024/01/07 02:26:01;;;;;;;25.17;22.27;;;1.00;1.00;;;;;;5057830;28;20218;-56
2024/01/07 02:28:27;;;;;;;24.27;21.30;;;0.80;1.00;;;;;;5054358;28;20205;-56
2024/01/07 02:30:52;;;;;;;23.83;20.63;;;0.80;1.00;;;;;;5061620;28;20314;-53
2024/01/07 02:33:18;;;;;;;24.07;21.60;;;0.90;1.00;;;;;;5055608;28;20179;-55
2024/01/07 02:35:44;;;;;;;25.50;21.03;;;0.80;1.00;;;;;;5059141;28;20589;-53
2024/01/07 02:38:09;;;;;;;24.53;21.50;;;0.80;1.00;;;;;;5039070;28;20280;-54
2024/01/07 02:40:35;;;;;;;23.53;21.13;;;0.80;1.00;;;;;;5059378;28;20176;-56
2024/01/07 02:43:00;;;;;;;24.13;21.27;;;0.80;1.00;;;;;;5049328;28;20199;-53
2024/01/07 02:45:26;;;;;;;24.00;20.50;;;0.70;1.00;;;;;;5057725;28;21146;-55
2024/01/07 02:47:51;;;;;;;24.50;20.57;;;0.80;1.00;;;;;;5055126;28;20180;-54
2024/01/07 02:50:17;;;;;;;23.83;21.30;;;0.80;1.00;;;;;;5053486;28;20183;-55
2024/01/07 02:52:43;;;;;;;26.23;22.27;;;0.80;1.00;;;;;;5048103;28;20185;-53
2024/01/07 02:55:09;;;;;;;24.17;21.80;;;0.70;1.00;;;;;;5057054;28;20268;-55
2024/01/07 02:57:34;;;;;;;26.27;22.57;;;0.80;1.00;;;;;;5058828;28;21086;-56
2024/01/07 03:00:00;;;;;;;24.57;21.90;;;0.70;1.00;;;;;;5042243;28;20189;-54
2024/01/07 03:02:26;;;;;;;29.33;23.00;;;0.70;1.00;;;;;;5047428;28;20190;-55
2024/01/07 03:04:51;;;;;;;22.60;20.40;;;0.70;1.00;;;;;;5056777;28;20819;-56
2024/01/07 03:07:17;;;;;;;23.83;21.53;;;0.70;1.00;;;;;;5048287;28;20191;-54
2024/01/07 03:09:43;;;;;;;23.40;21.10;;;0.70;1.00;;;;;;5055872;28;20201;-53
2024/01/07 03:15:12;;;;;;;23.00;20.85;;;0.60;1.00;;;;;;5023318;28;20529;-49
2024/01/07 03:17:38;;;;;;;22.93;20.80;;;0.60;1.00;;;;;;5055756;28;20180;-54
2024/01/07 03:20:03;;;;;;;22.47;20.07;;;0.60;1.00;;;;;;5055277;28;20227;-51
2024/01/07 03:22:29;;;;;;;24.47;21.97;;;0.60;1.00;;;;;;5055357;28;20188;-37
2024/01/07 03:24:55;;;;;;;24.33;20.97;;;0.60;1.00;;;;;;5053249;28;20476;-37
2024/01/07 03:27:20;;;;;;;22.37;20.23;;;0.60;1.00;;;;;;5051926;28;20217;-37
2024/01/07 03:29:46;;;;;;;23.93;21.43;;;0.60;1.00;;;;;;5044294;28;20186;-36
2024/01/07 03:32:11;;;;;;;21.83;19.83;;;0.60;1.00;;;;;;5048606;28;20184;-36
2024/01/07 03:34:39;;;;;;;22.90;20.50;;;0.60;1.00;;;;;;5042619;28;20190;-37
2024/01/07 03:37:05;;;;;;;22.85;20.60;;;0.60;1.00;;;;;;5058085;28;20196;-37
2024/01/07 03:39:33;;;;;;;24.53;21.90;;;0.60;1.00;;;;;;5049069;28;21088;-36
2024/01/07 03:41:59;;;;;;;23.52;21.08;;;0.50;1.00;;;;;;5053059;28;20176;-37
2024/01/07 03:44:24;;;;;;;23.07;20.67;;;0.50;1.00;;;;;;5041519;28;20217;-36
2024/01/07 03:46:50;;;;;;;23.43;20.97;;;0.50;1.00;;;;;;5047799;28;20231;-36
2024/01/07 03:49:17;;;;;;;23.17;20.83;;;0.60;1.00;;;;;;5052041;28;20527;-36
2024/01/07 03:51:43;;;;;;;23.63;21.27;;;0.60;1.00;;;;;;5047742;28;20178;-37
2024/01/07 03:54:09;;;;;;;21.98;19.77;;;0.60;1.00;;;;;;5047642;28;20646;-36
2024/01/07 03:56:34;;;;;;;25.60;21.80;;;0.60;1.00;;;;;;5041649;28;20232;-39
2024/01/07 03:59:00;;;;;;;23.03;20.27;;;0.60;1.00;;;;;;5050342;28;20190;-36
2024/01/07 04:01:26;;;;;;;21.57;19.27;;;0.60;1.00;;;;;;5058712;28;20303;-37
2024/01/07 04:03:51;;;;;;;23.10;19.40;;;0.60;1.00;;;;;;5044514;28;20665;-37
2024/01/07 04:06:17;;;;;;;26.23;22.50;;;0.60;1.00;;;;;;5046091;28;20331;-37
2024/01/07 04:08:42;;;;;;;21.40;19.20;;;0.50;1.00;;;;;;5047628;28;20203;-37
2024/01/07 04:11:08;;;;;;;21.60;19.30;;;0.60;1.00;;;;;;5033610;28;20205;-37
2024/01/07 04:13:34;;;;;;;22.50;20.20;;;0.60;1.00;;;;;;5045588;28;20180;-36
2024/01/07 04:15:59;;;;;;;22.27;19.87;;;0.60;1.00;;;;;;5023077;28;20311;-36
2024/01/07 04:18:25;;;;;;;23.97;20.90;;;0.70;1.00;;;;;;5046147;28;20199;-37
2024/01/07 04:20:50;;;;;;;23.30;20.80;;;0.60;1.00;;;;;;5056950;28;20190;-36
2024/01/07 04:23:16;;;;;;;27.27;20.80;;;0.60;1.00;;;;;;5051257;28;20189;-38
2024/01/07 04:25:44;;;;;;;25.83;22.20;;;0.60;1.00;;;;;;5047703;28;20215;-37
2024/01/07 04:28:09;;;;;;;23.08;20.55;;;0.60;1.00;;;;;;5052632;28;20185;-36
2024/01/07 04:30:35;;;;;;;26.50;20.53;;;0.60;1.00;;;;;;5055456;28;20863;-37
2024/01/07 04:33:01;;;;;;;23.60;21.30;;;0.60;1.00;;;;;;5062012;28;20881;-36
2024/01/07 04:35:27;;;;;;;21.57;19.50;;;0.60;1.00;;;;;;5048959;28;20205;-37
2024/01/07 04:37:52;;;;;;;21.87;19.57;;;0.60;1.00;;;;;;5051125;28;20418;-36
2024/01/07 04:40:18;;;;;;;23.00;20.70;;;0.70;1.00;;;;;;5049217;28;20211;-36
2024/01/07 04:42:43;;;;;;;22.50;20.20;;;0.70;1.00;;;;;;5059625;28;20187;-38
2024/01/07 04:45:09;;;;;;;23.60;21.20;;;0.60;86.40;;;;;;5048808;28;20397;-41
2024/01/07 04:47:35;;;;;;;22.63;19.90;;;0.60;43.70;;;;;;5053378;28;20183;-36
2024/01/07 04:50:00;;;;;;;23.30;20.60;;;0.60;1.00;;;;;;5052391;28;20278;-37
2024/01/07 04:52:26;;;;;;;22.90;20.40;;;0.60;1.00;;;;;;5060235;28;20204;-37
2024/01/07 04:54:52;;;;;;;21.80;19.60;;;0.60;1.00;;;;;;5047320;28;20682;-36
2024/01/07 04:57:18;;;;;;;22.58;20.30;;;0.70;1.00;;;;;;5050116;28;20182;-38
2024/01/07 04:59:45;;;;;;;22.30;19.90;;;0.60;1.00;;;;;;5057932;28;20182;-37
2024/01/07 05:02:10;;;;;;;20.92;18.83;;;0.60;1.00;;;;;;5051744;28;20184;-37
2024/01/07 05:04:36;;;;;;;21.70;19.43;;;0.60;1.00;;;;;;5054202;28;20194;-37
2024/01/07 05:07:02;;;;;;;20.83;18.83;;;0.60;1.00;;;;;;5056753;28;20641;-36
2024/01/07 05:09:27;;;;;;;21.07;19.13;;;0.60;1.00;;;;;;5057594;28;20183;-37
2024/01/07 05:11:53;;;;;;;21.07;18.93;;;0.60;1.00;;;;;;5049435;28;20258;-38
2024/01/07 05:14:19;;;;;;;22.10;19.93;;;0.50;1.00;;;;;;5049621;28;20214;-37
2024/01/07 05:16:44;;;;;;;21.47;19.43;;;0.50;1.00;;;;;;5053861;28;20641;-37
2024/01/07 05:19:10;;;;;;;22.73;20.57;;;0.50;1.00;;;;;;5057181;28;20728;-37
2024/01/07 05:21:36;;;;;;;22.13;20.00;;;0.50;1.00;;;;;;5048793;28;20220;-37
2024/01/07 05:24:01;;;;;;;22.17;19.80;;;0.50;1.00;;;;;;5061809;28;20220;-37
2024/01/07 05:26:27;;;;;;;20.90;18.80;;;0.50;1.00;;;;;;5056970;28;20198;-37
2024/01/07 05:28:52;;;;;;;21.80;19.70;;;0.50;1.00;;;;;;5051571;28;20196;-37
2024/01/07 05:31:19;;;;;;;21.60;19.47;;;0.50;1.00;;;;;;5055073;28;20191;-37
2024/01/07 05:33:45;;;;;;;19.00;17.20;;;0.50;1.00;;;;;;5055178;28;21076;-37
2024/01/07 05:36:12;;;;;;;20.45;18.63;;;0.50;1.00;;;;;;5053227;28;20209;-37
2024/01/07 05:38:38;;;;;;;22.73;19.13;;;0.50;1.00;;;;;;5059561;28;20183;-36
2024/01/07 05:41:03;;;;;;;20.77;18.87;;;0.50;1.00;;;;;;5047590;28;20180;-38
2024/01/07 05:43:29;;;;;;;21.57;19.33;;;0.50;99.90;;;;;;5047727;28;20920;-37
2024/01/07 05:45:54;;;;;;;20.00;18.03;;;0.50;99.90;;;;;;5053435;28;20182;-37
2024/01/07 05:48:23;;;;;;;20.33;18.43;;;0.40;1.00;;;;;;5058993;28;20185;-56
2024/01/07 05:50:49;;;;;;;20.00;17.88;;;0.40;1.00;;;;;;5058775;28;20262;-56
2024/01/07 05:53:15;;;;;;;20.98;18.65;;;0.50;1.00;;;;;;5050835;28;20206;-56
2024/01/07 05:55:40;;;;;;;19.63;17.87;;;0.40;1.00;;;;;;5054883;28;20288;-57
2024/01/07 05:58:06;;;;;;;20.80;18.77;;;0.40;1.00;;;;;;5050923;28;20199;-54
2024/01/07 06:00:31;;;;;;;20.57;18.47;;;0.40;1.00;;;;;;5042099;28;20178;-56
2024/01/07 06:02:57;;;;;;;20.67;18.57;;;0.30;1.00;;;;;;5046118;28;20184;-50
2024/01/07 06:05:23;;;;;;;19.17;17.47;;;0.30;1.00;;;;;;5057877;28;20251;-54
2024/01/07 06:07:48;;;;;;;22.00;18.70;;;0.30;1.00;;;;;;5055661;28;20181;-42
2024/01/07 06:10:14;;;;;;;20.33;18.00;;;0.30;1.00;;;;;;5058816;28;20419;-54
2024/01/07 06:12:40;;;;;;;19.67;17.67;;;0.30;1.00;;;;;;5049747;28;20202;-55
2024/01/07 06:15:06;;;;;;;20.33;18.60;;;0.30;1.00;;;;;;5049761;28;20530;-53
2024/01/07 06:17:32;;;;;;;18.40;16.80;;;0.20;1.00;;;;;;5043886;28;21373;-56
2024/01/07 06:19:58;;;;;;;18.23;16.63;;;0.20;1.00;;;;;;5050167;28;20235;-56
2024/01/07 06:22:23;;;;;;;19.00;17.37;;;0.10;1.00;;;;;;5059010;28;20272;-51
2024/01/07 06:24:49;;;;;;;18.03;16.33;;;0.10;1.00;;;;;;5062310;28;20957;-54
2024/01/07 06:27:14;;;;;;;18.63;16.83;;;0.10;1.00;;;;;;5060728;28;20206;-38
2024/01/07 06:29:40;;;;;;;19.03;17.00;;;0.10;1.00;;;;;;5055295;28;20194;-37
2024/01/07 06:32:06;;;;;;;19.20;17.30;;;0.20;1.00;;;;;;5047211;28;20182;-36
2024/01/07 06:34:33;;;;;;;18.83;17.13;;;0.20;1.00;;;;;;5045148;28;20226;-37
2024/01/07 06:36:58;;;;;;;18.13;16.50;;;0.20;1.00;;;;;;5053937;28;20186;-36
2024/01/07 06:39:26;;;;;;;18.37;16.67;;;0.10;1.00;;;;;;5055075;28;20991;-37
2024/01/07 06:41:52;;;;;;;18.45;16.65;;;0.10;1.00;;;;;;5047577;28;20246;-38
2024/01/07 06:44:18;;;;;;;17.27;15.77;;;0.10;1.00;;;;;;5060813;28;20240;-36
2024/01/07 06:46:43;;;;;;;18.37;16.70;;;0.10;1.00;;;;;;5051251;28;20242;-37
2024/01/07 06:49:09;;;;;;;18.03;16.23;;;0.10;1.00;;;;;;5048804;28;20229;-38
2024/01/07 06:51:35;;;;;;;16.97;15.17;;;0.10;1.00;;;;;;5056548;28;20170;-38
2024/01/07 06:54:00;;;;;;;16.80;15.50;;;0.10;1.00;;;;;;5048594;28;20552;-37
2024/01/07 06:56:26;;;;;;;16.80;15.40;;;0.00;1.00;;;;;;5051739;28;20669;-36
2024/01/07 06:58:52;;;;;;;17.70;16.17;;;0.00;1.00;;;;;;5053431;28;20647;-37
2024/01/07 07:01:22;;;;;;;16.70;15.30;;;0.00;1.00;;;;;;5049511;28;20181;-39
2024/01/07 07:03:49;;;;;;;17.92;16.20;;;-0.10;1.00;;;;;;5045879;28;20201;-37
2024/01/07 07:06:14;;;;;;;17.27;15.75;;;0.00;1.00;;;;;;5044307;28;20194;-36
2024/01/07 07:08:40;;;;;;;16.80;15.10;;;-0.10;1.00;;;;;;5047970;28;20177;-37
2024/01/07 07:11:06;;;;;;;17.20;15.80;;;-0.10;1.00;;;;;;5047083;28;20193;-37
2024/01/07 07:13:31;;;;;;;18.60;17.20;;;0.00;1.00;;;;;;5045088;28;20262;-38
2024/01/07 07:15:57;;;;;;;16.97;15.67;;;-0.10;99.90;;;;;;5048106;28;20207;-37
2024/01/07 07:18:24;;;;;;;17.43;16.03;;;0.00;99.90;;;;;;5046769;28;20186;-36
2024/01/07 07:20:49;;;;;;;16.75;15.35;;;0.00;1.00;;;;;;5050379;28;20186;-37
2024/01/07 07:23:15;;;;;;;16.30;14.90;;;0.00;1.00;;;;;;5054268;28;20192;-54
2024/01/07 07:25:41;;;;;;;16.53;15.13;;;0.00;99.90;;;;;;5059421;28;20306;-56
2024/01/07 07:28:06;;;;;;;17.13;15.83;;;0.00;99.90;;;;;;5045238;28;20267;-55
2024/01/07 07:30:32;;;;;;;15.90;14.70;;;-0.10;99.90;;;;;;5049282;28;20195;-56
2024/01/07 07:32:57;;;;;;;17.23;15.73;;;-0.10;99.90;;;;;;5035759;28;20238;-54
2024/01/07 07:35:23;;;;;;;16.80;15.50;;;-0.10;1.00;;;;;;5054268;28;20313;-56
2024/01/07 07:37:48;;;;;;;16.63;15.23;;;-0.10;1.00;;;;;;5047624;28;20227;-44
2024/01/07 07:40:14;;;;;;;17.60;15.97;;;-0.10;1.00;;;;;;5043197;28;20193;-56
2024/01/07 07:42:40;;;;;;;17.40;16.00;;;-0.10;1.00;;;;;;5047945;28;20691;-56
2024/01/07 07:45:06;;;;;;;19.17;17.60;;;0.00;1.00;;;;;;5052179;28;20198;-53
2024/01/07 07:47:31;;;;;;;18.00;16.50;;;-0.10;1.00;;;;;;5047948;28;20204;-56
2024/01/07 07:49:57;;;;;;;16.30;15.00;;;-0.10;1.00;;;;;;5055826;28;20178;-55
2024/01/07 07:52:25;;;;;;;17.00;15.50;;;0.00;1.00;;;;;;5044832;28;20537;-54
2024/01/07 07:54:52;;;;;;;16.48;15.00;;;0.00;90.30;;;;;;5047839;28;20212;-56
2024/01/07 07:57:19;;;;;;;17.70;16.20;;;-0.10;99.90;;;;;;5048113;28;20200;-57
2024/01/07 07:59:45;;;;;;;17.30;15.70;;;-0.10;1.00;;;;;;5052091;28;20268;-56
2024/01/07 08:02:10;;;;;;;16.70;15.30;;;-0.10;1.00;;;;;;5045496;28;20555;-55
2024/01/07 08:04:36;;;;;;;15.40;14.30;;;-0.10;99.90;;;;;;5052671;28;20218;-56
2024/01/07 08:07:02;;;;;;;15.93;14.63;;;-0.20;99.90;;;;;;5051600;28;20275;-52
2024/01/07 08:09:28;;;;;;;15.63;14.53;;;-0.20;99.90;;;;;;5051304;28;20431;-57
2024/01/07 08:11:53;;;;;;;15.27;14.27;;;-0.20;99.90;;;;;;5055974;28;20181;-55
2024/01/07 08:14:19;;;;;;;14.23;13.13;;;-0.20;99.90;;;;;;5049387;28;20323;-54
2024/01/07 08:16:44;;;;;;;15.10;14.00;;;-0.20;99.90;;;;;;5053279;28;20182;-57
2024/01/07 08:19:10;;;;;;;13.90;12.77;;;-0.20;99.90;;;;;;5050327;28;20422;-56
2024/01/07 08:21:35;;;;;;;14.37;13.17;;;-0.10;99.90;;;;;;5043456;28;20261;-55
2024/01/07 08:24:01;;;;;;;15.20;13.90;;;-0.10;99.90;;;;;;5050276;28;20195;-55
2024/01/07 08:26:27;;;;;;;14.93;13.83;;;0.00;99.90;;;;;;5042482;28;20268;-36
2024/01/07 08:28:52;;;;;;;14.10;13.00;;;0.00;99.90;;;;;;5044682;28;20263;-37
2024/01/07 08:31:18;;;;;;;15.63;14.33;;;0.00;99.90;;;;;;5048504;28;20255;-37
2024/01/07 08:33:43;;;;;;;14.57;13.43;;;0.00;99.90;;;;;;5048439;28;20187;-37
2024/01/07 08:36:09;;;;;;;13.77;12.77;;;0.00;99.90;;;;;;5047136;28;20687;-36
2024/01/07 08:38:35;;;;;;;14.97;13.87;;;0.00;99.90;;;;;;5045529;28;20623;-37
2024/01/07 08:41:00;;;;;;;13.90;12.90;;;0.10;99.90;;;;;;5045224;28;20181;-37
2024/01/07 08:43:26;;;;;;;13.07;12.27;;;0.00;99.90;;;;;;5045473;28;20505;-55
2024/01/07 08:45:52;;;;;;;14.10;13.10;;;0.00;99.90;;;;;;5044518;28;20180;-56
2024/01/07 08:48:17;;;;;;;13.07;12.07;;;0.00;99.90;;;;;;5043142;28;20197;-55
2024/01/07 08:50:43;;;;;;;14.23;13.23;;;0.00;99.90;;;;;;5040054;28;20182;-53
2024/01/07 08:53:09;;;;;;;14.07;13.07;;;0.00;99.90;;;;;;5044475;28;20187;-52
2024/01/07 08:55:34;;;;;;;13.23;12.33;;;0.00;99.90;;;;;;5052292;28;20210;-54
2024/01/07 08:58:00;;;;;;;12.60;11.80;;;0.00;99.90;;;;;;5039476;28;20637;-51
2024/01/07 09:00:26;;;;;;;11.90;11.20;;;0.10;99.90;;;;;;5047197;28;20217;-56
2024/01/07 09:02:52;;;;;;;13.88;12.77;;;0.10;99.90;;;;;;5045640;28;20999;-53
2024/01/07 09:05:18;;;;;;;14.50;13.50;;;0.10;99.90;;;;;;5049008;28;20187;-53
2024/01/07 09:07:44;;;;;;;13.30;12.10;;;0.20;99.90;;;;;;5049336;28;20189;-54
2024/01/07 09:10:10;;;;;;;13.13;12.13;;;0.10;99.90;;;;;;5021489;28;20473;-50
2024/01/07 09:12:37;;;;;;;13.57;12.48;;;0.10;99.90;;;;;;5044875;28;20228;-53
2024/01/07 09:15:07;;;;;;;14.02;12.77;;;0.20;99.90;;;;;;5040507;28;20221;-53
2024/01/07 09:17:34;;;;;;;12.90;12.10;;;0.20;99.90;;;;;;5046443;28;20199;-45
2024/01/07 09:20:00;;;;;;;12.35;11.55;;;0.20;99.90;;;;;;5058702;28;20770;-51
2024/01/07 09:22:25;;;;;;;13.20;12.20;;;0.20;99.90;;;;;;5062215;28;20190;-52
2024/01/07 09:24:51;;;;;;;12.57;11.70;;;0.30;99.90;;;;;;5058846;28;20262;-43
2024/01/07 09:27:17;;;;;;;13.53;12.63;;;0.30;99.90;;;;;;5060738;28;20181;-44
2024/01/07 09:29:42;;;;;;;12.43;11.73;;;0.40;99.90;;;;;;5059844;28;20181;-44
2024/01/07 09:32:08;;;;;;;13.03;12.13;;;0.30;99.90;;;;;;5048754;28;20220;-48
2024/01/07 09:34:34;;;;;;;13.37;12.40;;;0.20;99.90;;;;;;5049559;28;20795;-53
2024/01/07 09:36:59;;;;;;;13.40;12.20;;;0.20;99.90;;;;;;5047598;28;20510;-37
2024/01/07 09:39:25;;;;;;;14.30;13.30;;;0.30;99.90;;;;;;5045052;28;21009;-38
2024/01/07 09:41:51;;;;;;;12.90;12.00;;;0.40;99.90;;;;;;5048546;28;20258;-37
2024/01/07 09:44:18;;;;;;;13.80;12.73;;;0.40;99.90;;;;;;5057117;28;20261;-37
2024/01/07 09:46:49;;;;;;;12.45;11.55;;;0.30;99.90;;;;;;5061560;28;20418;-39
2024/01/07 09:49:15;;;;;;;13.05;12.18;;;0.30;99.90;;;;;;5055889;28;20184;-38
2024/01/07 09:51:44;;;;;;;13.00;12.10;;;0.30;99.90;;;;;;5061871;28;20187;-37
2024/01/07 09:54:14;;;;;;;13.88;12.70;;;0.40;99.90;;;;;;5053979;28;20231;-37
2024/01/07 09:56:48;;;;;;;13.15;12.15;;;0.30;99.90;;;;;;5051971;28;20198;-37
2024/01/07 09:59:15;;;;;;;13.95;12.73;;;0.30;99.70;;;;;;5048370;28;20182;-37
2024/01/07 10:01:41;;;;;;;14.85;13.65;;;0.40;99.90;;;;;;5051608;28;20605;-38
2024/01/07 10:04:06;;;;;;;13.03;12.10;;;0.40;99.10;;;;;;5060408;28;20205;-37
2024/01/07 10:06:32;;;;;;;14.03;13.00;;;0.30;99.30;;;;;;5061016;28;20187;-36
2024/01/07 10:08:59;;;;;;;14.87;13.47;;;0.40;99.10;;;;;;5059145;28;20194;-49
2024/01/07 10:11:24;;;;;;;14.88;13.68;;;0.30;99.30;;;;;;5042369;28;20499;-53
2024/01/07 10:13:53;;;;;;;13.03;12.23;;;0.20;99.70;;;;;;5060010;28;20193;-52
2024/01/07 10:16:18;;;;;;;14.00;13.00;;;0.30;99.80;;;;;;5053110;28;20500;-55
2024/01/07 10:18:44;;;;;;;11.80;11.00;;;0.30;99.40;;;;;;5057677;28;20225;-53
2024/01/07 10:21:10;;;;;;;12.23;11.37;;;0.20;98.80;;;;;;5052810;28;20639;-53
2024/01/07 10:23:35;;;;;;;12.80;11.90;;;0.10;99.50;;;;;;5060760;28;20194;-47
2024/01/07 10:26:02;;;;;;;14.57;13.37;;;0.00;99.10;;;;;;5050594;28;20672;-55
2024/01/07 10:28:28;;;;;;;13.60;12.40;;;-0.10;99.90;;;;;;5053811;28;20820;-54
2024/01/07 10:31:31;;;;;;;13.03;11.97;;;-0.20;99.90;;;;;;5054869;28;20198;-52
2024/01/07 10:34:23;;;;;;;13.40;12.07;;;-0.30;99.60;;;;;;5019444;28;20212;-53
2024/01/07 10:36:50;;;;;;;11.73;10.93;;;-0.40;99.80;;;;;;5029990;28;20181;-54
2024/01/07 10:39:16;;;;;;;12.95;12.05;;;-0.50;99.80;;;;;;5023291;28;20178;-56
2024/01/07 10:41:44;;;;;;;12.77;11.93;;;-0.60;99.90;;;;;;5032623;28;20178;-53
2024/01/07 10:44:10;;;;;;;12.00;11.20;;;-0.60;99.90;;;;;;5031334;28;20182;-37
2024/01/07 10:46:36;;;;;;;12.23;11.40;;;-0.50;99.90;;;;;;5029650;28;20182;-38
2024/01/07 10:49:13;;;;;;;12.80;11.90;;;-0.50;99.90;;;;;;5033973;28;20189;-37
2024/01/07 10:51:40;;;;;;;12.30;11.32;;;-0.40;99.90;;;;;;5033228;28;20188;-41
2024/01/07 10:54:11;;;;;;;13.40;12.50;;;-0.40;99.90;;;;;;5030825;28;20269;-39
2024/01/07 10:56:48;;;;;;;12.95;12.05;;;-0.40;99.40;;;;;;5012453;28;20429;-37
2024/01/07 10:59:15;;;;;;;12.43;11.57;;;-0.60;98.40;;;;;;5024475;28;20197;-37
2024/01/07 11:01:40;;;;;;;12.65;11.85;;;-0.50;99.40;;;;;;5023990;28;20190;-38
2024/01/07 11:04:24;;;;;;;17.90;12.30;;;-0.60;98.90;;;;;;5022944;28;20649;-37
2024/01/07 11:07:13;;;;;;;12.30;11.52;;;-0.60;98.80;;;;;;5022216;28;20637;-37
2024/01/07 11:09:45;;;;;;;13.10;12.20;;;-0.60;98.10;;;;;;5029643;28;20192;-37
2024/01/07 11:12:11;;;;;;;12.95;12.13;;;-0.50;98.10;;;;;;5034444;28;21053;-37
2024/01/07 11:14:45;;;;;;;13.30;12.60;;;-0.50;97.30;;;;;;5035609;28;20206;-37
2024/01/07 11:17:11;;;;;;;12.50;11.80;;;-0.50;98.30;;;;;;5026238;28;20352;-36
2024/01/07 11:19:38;;;;;;;11.90;11.13;;;-0.50;98.20;;;;;;5033714;28;20218;-37
2024/01/07 11:22:23;;;;;;;12.90;12.10;;;-0.50;97.20;;;;;;5030581;28;20808;-38
2024/01/07 11:24:50;;;;;;;11.90;11.30;;;-0.50;96.80;;;;;;5025765;28;20186;-37
2024/01/07 11:27:17;;;;;;;13.10;12.27;;;-0.50;96.60;;;;;;5032142;28;20698;-37
2024/01/07 11:29:42;;;;;;;11.17;10.50;;;-0.40;97.20;;;;;;5032441;28;20264;-37
2024/01/07 11:32:11;;;;;;;12.60;11.80;;;-0.40;96.90;;;;;;5034410;28;20430;-36
2024/01/07 11:34:47;;;;;;;11.95;11.25;;;-0.30;96.40;;;;;;5032752;28;20213;-36
2024/01/07 11:37:13;;;;;;;11.40;10.70;;;-0.40;95.60;;;;;;5028544;28;20196;-38
2024/01/07 11:39:43;;;;;;;10.80;10.20;;;-0.30;95.50;;;;;;5024909;28;20186;-36
2024/01/07 11:42:09;;;;;;;14.43;13.45;;;-0.20;95.20;;;;;;5018853;28;21136;-36
2024/01/07 11:44:36;;;;;;;12.07;11.37;;;-0.20;94.80;;;;;;5030410;28;20189;-37
2024/01/07 11:47:04;;;;;;;11.90;11.20;;;-0.10;93.90;;;;;;5029712;28;20828;-52
2024/01/07 11:49:30;;;;;;;12.75;11.95;;;-0.10;93.50;;;;;;5037997;28;20178;-56
2024/01/07 11:51:55;;;;;;;10.90;10.20;;;0.00;93.50;;;;;;5024157;28;20625;-56
2024/01/07 11:54:21;;;;;;;12.23;11.53;;;0.10;92.70;;;;;;5023457;28;20661;-51
2024/01/07 11:56:47;;;;;;;11.48;10.82;;;0.00;92.90;;;;;;5022800;28;20668;-54
2024/01/07 11:59:12;;;;;;;10.83;10.17;;;0.10;92.80;;;;;;5025271;28;20189;-55
2024/01/07 12:01:38;;;;;;;11.40;10.60;;;0.00;92.10;;;;;;5022120;28;20182;-47
2024/01/07 12:04:04;;;;;;;11.13;10.53;;;0.00;92.50;;;;;;5036430;28;20189;-55
2024/01/07 12:06:30;;;;;;;11.20;10.60;;;0.00;92.60;;;;;;5031657;28;20189;-56
2024/01/07 12:08:55;;;;;;;11.23;10.53;;;0.10;92.20;;;;;;5030489;28;20636;-56
2024/01/07 12:11:21;;;;;;;12.83;12.03;;;0.20;92.30;;;;;;5029658;28;20436;-56
2024/01/07 12:13:47;;;;;;;11.87;11.27;;;0.30;92.10;;;;;;5035276;28;20597;-56
2024/01/07 12:16:13;;;;;;;11.75;11.15;;;0.40;92.10;;;;;;5036694;28;20224;-53
2024/01/07 12:18:42;;;;;;;12.37;11.57;;;0.40;91.70;;;;;;5034953;28;20322;-54
2024/01/07 12:21:08;;;;;;;12.65;11.95;;;0.40;91.50;;;;;;5035542;28;20735;-56
2024/01/07 12:23:37;;;;;;;12.27;11.48;;;0.30;91.10;;;;;;5035685;28;20248;-54
2024/01/07 12:26:12;;;;;;;12.50;11.77;;;0.30;91.10;;;;;;5038668;28;20656;-54
2024/01/07 12:28:41;;;;;;;11.50;10.80;;;0.10;92.00;;;;;;5033598;28;20729;-47
2024/01/07 12:31:08;;;;;;;12.73;11.82;;;0.20;92.20;;;;;;5038372;28;20202;-52
2024/01/07 12:33:34;;;;;;;11.00;10.30;;;0.10;92.00;;;;;;5001635;28;20191;-50
2024/01/07 12:36:01;;;;;;;11.37;10.77;;;0.00;92.10;;;;;;5032057;28;20245;-53
2024/01/07 12:38:27;;;;;;;11.70;11.00;;;-0.10;91.60;;;;;;5038505;28;20185;-55